createdAt,value
2018-12-31T00:01:42.925Z,99797.89
2018-12-31T00:04:16.244Z,99800.02
2018-12-31T00:06:46.752Z,99799.19
2018-12-31T00:09:17.302Z,99791.86
2018-12-31T00:11:47.883Z,99798.35
2018-12-31T00:14:18.393Z,99791.02
2018-12-31T00:16:48.964Z,99799.19
2018-12-31T00:19:19.500Z,99800.12
2018-12-31T00:21:50.072Z,99793.63
2018-12-31T00:24:20.562Z,99801.55
2018-12-31T00:26:51.081Z,99798.13
2018-12-31T00:29:21.645Z,99797.06
2018-12-31T00:31:52.200Z,99784.54
2018-12-31T00:34:22.746Z,99780.55
2018-12-31T00:36:53.251Z,99782.64
2018-12-31T00:39:23.760Z,99783.73
2018-12-31T00:41:54.313Z,99776.50
2018-12-31T00:44:24.873Z,99773.31
2018-12-31T00:46:55.396Z,99775.91
2018-12-31T00:49:25.927Z,99771.79
2018-12-31T00:51:56.465Z,99781.95
2018-12-31T00:54:26.987Z,99784.64
2018-12-31T00:56:57.498Z,99784.17
2018-12-31T00:59:28.049Z,99772.38
2018-12-31T01:01:58.577Z,99765.52
2018-12-31T01:04:29.114Z,99760.80
2018-12-31T01:06:59.605Z,99770.25
2018-12-31T01:09:30.206Z,99774.61
2018-12-31T01:12:00.736Z,99786.67
2018-12-31T01:14:31.238Z,99783.47
2018-12-31T01:17:01.740Z,99775.67
2018-12-31T01:19:32.282Z,99786.67
2018-12-31T01:22:02.826Z,99799.30
2018-12-31T01:24:33.326Z,99804.39
2018-12-31T01:27:06.150Z,99802.03
2018-12-31T01:29:36.672Z,99804.63
2018-12-31T01:32:07.207Z,99803.09
2018-12-31T01:34:37.755Z,99803.56
2018-12-31T01:37:08.283Z,99794.56
2018-12-31T01:39:38.861Z,99789.84
2018-12-31T01:42:09.390Z,99793.63
2018-12-31T01:44:39.943Z,99793.63
2018-12-31T01:47:10.520Z,99797.16
2018-12-31T01:49:41.124Z,99795.03
2018-12-31T01:52:11.662Z,99791.73
2018-12-31T01:54:43.179Z,99795.28
2018-12-31T01:57:14.763Z,99792.69
2018-12-31T01:59:46.272Z,99802.73
2018-12-31T02:02:16.779Z,99790.11
2018-12-31T02:04:49.726Z,99787.73
2018-12-31T02:07:20.275Z,99783.70
2018-12-31T02:09:50.857Z,99787.14
2018-12-31T02:12:21.380Z,99794.00
2018-12-31T02:14:54.968Z,99791.87
2018-12-31T02:17:28.238Z,99787.50
2018-12-31T02:19:58.800Z,99786.67
2018-12-31T02:22:29.450Z,99788.91
2018-12-31T02:24:59.962Z,99796.23
2018-12-31T02:27:31.224Z,99795.66
2018-12-31T02:30:01.731Z,99793.06
2018-12-31T02:32:35.928Z,99798.26
2018-12-31T02:35:06.558Z,99792.09
2018-12-31T02:37:37.063Z,99786.56
2018-12-31T02:40:07.761Z,99786.89
2018-12-31T02:42:38.302Z,99787.26
2018-12-31T02:45:09.108Z,99776.97
2018-12-31T02:47:39.700Z,99782.66
2018-12-31T02:50:10.253Z,99786.56
2018-12-31T02:52:40.773Z,99785.73
2018-12-31T02:55:11.378Z,99780.06
2018-12-31T02:57:41.912Z,99774.51
2018-12-31T03:00:12.486Z,99783.97
2018-12-31T03:02:43.006Z,99785.73
2018-12-31T03:05:13.544Z,99778.88
2018-12-31T03:07:44.103Z,99774.14
2018-12-31T03:10:14.601Z,99772.84
2018-12-31T03:12:45.141Z,99767.64
2018-12-31T03:15:15.943Z,99769.78
2018-12-31T03:17:47.095Z,99768.01
2018-12-31T03:20:17.632Z,99766.71
2018-12-31T03:22:48.213Z,99763.75
2018-12-31T03:25:18.740Z,99760.22
2018-12-31T03:27:49.241Z,99759.52
2018-12-31T03:30:19.790Z,99763.41
2018-12-31T03:32:50.358Z,99765.29
2018-12-31T03:35:21.062Z,99772.52
2018-12-31T03:37:52.182Z,99772.02
2018-12-31T03:40:22.695Z,99779.22
2018-12-31T03:42:53.247Z,99780.87
2018-12-31T03:45:23.789Z,99779.01
2018-12-31T03:47:56.398Z,99778.04
2018-12-31T03:50:26.589Z,99774.27
2018-12-31T03:52:57.131Z,99769.77
2018-12-31T03:55:27.678Z,99767.89
2018-12-31T03:57:58.210Z,99766.34
2018-12-31T04:00:28.722Z,99763.50
2018-12-31T04:02:59.322Z,99758.42
2018-12-31T04:05:29.862Z,99752.05
2018-12-31T04:08:00.456Z,99753.92
2018-12-31T04:10:30.984Z,99770.11
2018-12-31T04:13:02.140Z,99765.13
2018-12-31T04:15:32.640Z,99764.42
2018-12-31T04:18:03.149Z,99757.81
2018-12-31T04:20:33.661Z,99751.64
2018-12-31T04:23:04.230Z,99751.89
2018-12-31T04:25:34.757Z,99743.73
2018-12-31T04:28:05.274Z,99748.08
2018-12-31T04:30:35.859Z,99743.23
2018-12-31T04:33:06.391Z,99747.03
2018-12-31T04:35:37.452Z,99753.39
2018-12-31T04:38:09.440Z,99754.11
2018-12-31T04:40:40.561Z,99746.55
2018-12-31T04:43:11.134Z,99750.45
2018-12-31T04:45:41.642Z,99752.22
2018-12-31T04:48:14.210Z,99756.73
2018-12-31T04:50:44.763Z,99756.38
2018-12-31T04:53:15.297Z,99758.14
2018-12-31T04:55:45.843Z,99749.52
2018-12-31T04:58:23.003Z,99759.91
2018-12-31T05:00:49.051Z,99759.58
2018-12-31T05:03:21.831Z,99757.92
2018-12-31T05:05:52.338Z,99751.89
2018-12-31T05:08:23.602Z,99753.80
2018-12-31T05:10:54.118Z,99753.33
2018-12-31T05:13:24.592Z,99751.30
2018-12-31T05:15:55.759Z,99756.64
2018-12-31T05:18:26.491Z,99761.70
2018-12-31T05:20:57.689Z,99761.73
2018-12-31T05:23:28.256Z,99764.33
2018-12-31T05:25:58.791Z,99764.43
2018-12-31T05:28:29.267Z,99763.60
2018-12-31T05:30:59.898Z,99766.70
2018-12-31T05:33:30.502Z,99768.00
2018-12-31T05:36:01.714Z,99768.00
2018-12-31T05:38:32.356Z,99771.54
2018-12-31T05:41:03.597Z,99766.45
2018-12-31T05:43:34.134Z,99769.52
2018-12-31T05:46:04.650Z,99774.71
2018-12-31T05:48:35.220Z,99776.84
2018-12-31T05:51:07.307Z,99779.91
2018-12-31T05:53:37.861Z,99780.87
2018-12-31T05:56:08.390Z,99785.36
2018-12-31T05:58:38.941Z,99789.25
2018-12-31T06:01:10.697Z,99789.98
2018-12-31T06:03:41.259Z,99787.13
2018-12-31T06:06:11.825Z,99789.25
2018-12-31T06:08:42.371Z,99793.05
2018-12-31T06:11:12.938Z,99793.05
2018-12-31T06:13:43.467Z,99793.88
2018-12-31T06:16:14.024Z,99792.58
2018-12-31T06:18:44.597Z,99794.57
2018-12-31T06:21:15.108Z,99790.31
2018-12-31T06:23:48.092Z,99789.38
2018-12-31T06:26:18.617Z,99796.23
2018-12-31T06:28:49.183Z,99800.13
2018-12-31T06:31:19.711Z,99809.23
2018-12-31T06:33:51.764Z,99805.20
2018-12-31T06:36:22.287Z,99805.70
2018-12-31T06:38:52.791Z,99810.66
2018-12-31T06:41:23.335Z,99807.22
2018-12-31T06:43:53.856Z,99806.98
2018-12-31T06:46:24.316Z,99813.95
2018-12-31T06:48:54.874Z,99810.05
2018-12-31T06:51:25.377Z,99820.81
2018-12-31T06:53:55.929Z,99820.91
2018-12-31T06:56:26.503Z,99829.55
2018-12-31T06:58:56.986Z,99829.30
2018-12-31T07:01:27.552Z,99829.06
2018-12-31T07:03:58.031Z,99832.96
2018-12-31T07:06:28.644Z,99833.33
2018-12-31T07:08:59.265Z,99838.52
2018-12-31T07:11:33.422Z,99843.72
2018-12-31T07:14:06.308Z,99851.16
2018-12-31T07:16:41.247Z,99855.42
2018-12-31T07:19:11.914Z,99842.67
2018-12-31T07:21:42.447Z,99847.73
2018-12-31T07:24:15.775Z,99852.59
2018-12-31T07:26:46.303Z,99855.89
2018-12-31T07:29:17.864Z,99857.66
2018-12-31T07:31:48.466Z,99858.39
2018-12-31T07:34:19.083Z,99862.76
2018-12-31T07:36:49.655Z,99865.46
2018-12-31T07:39:20.174Z,99860.52
2018-12-31T07:41:50.718Z,99869.48
2018-12-31T07:44:24.280Z,99876.35
2018-12-31T07:46:54.819Z,99880.11
2018-12-31T07:49:28.195Z,99883.44
2018-12-31T07:51:58.730Z,99882.61
2018-12-31T07:54:29.241Z,99891.71
2018-12-31T07:56:59.827Z,99889.80
2018-12-31T07:59:31.779Z,99886.87
2018-12-31T08:02:02.298Z,99889.80
2018-12-31T08:04:32.872Z,99893.23
2018-12-31T08:07:03.418Z,99890.53
2018-12-31T08:09:34.014Z,99902.60
2018-12-31T08:12:04.506Z,99905.20
2018-12-31T08:14:35.047Z,99904.70
2018-12-31T08:17:05.588Z,99902.00
2018-12-31T08:19:36.120Z,99901.89
2018-12-31T08:22:06.690Z,99901.89
2018-12-31T08:24:37.219Z,99906.59
2018-12-31T08:27:07.773Z,99903.66
2018-12-31T08:29:38.285Z,99906.02
2018-12-31T08:32:08.883Z,99906.35
2018-12-31T08:34:39.423Z,99909.55
2018-12-31T08:37:09.967Z,99908.14
2018-12-31T08:39:40.724Z,99914.77
2018-12-31T08:42:11.237Z,99917.13
2018-12-31T08:44:41.837Z,99917.95
2018-12-31T08:47:13.640Z,99912.39
2018-12-31T08:49:44.100Z,99909.68
2018-12-31T08:52:14.849Z,99916.19
2018-12-31T08:54:45.311Z,99908.84
2018-12-31T08:57:22.282Z,99923.02
2018-12-31T08:59:52.816Z,99918.18
2018-12-31T09:02:23.355Z,99915.58
2018-12-31T09:04:53.900Z,99909.80
2018-12-31T09:07:24.439Z,99911.80
2018-12-31T09:09:55.030Z,99915.70
2018-12-31T09:12:25.623Z,99916.06
2018-12-31T09:14:56.188Z,99913.79
2018-12-31T09:17:26.730Z,99915.81
2018-12-31T09:19:57.287Z,99908.84
2018-12-31T09:22:27.807Z,99909.17
2018-12-31T09:25:02.435Z,99910.00
2018-12-31T09:27:35.887Z,99916.65
2018-12-31T09:30:06.742Z,99917.23
2018-12-31T09:32:40.507Z,99910.37
2018-12-31T09:35:11.007Z,99918.77
2018-12-31T09:37:41.555Z,99916.98
2018-12-31T09:40:12.145Z,99918.63
2018-12-31T09:42:42.627Z,99918.52
2018-12-31T09:45:13.201Z,99915.81
2018-12-31T09:47:46.497Z,99920.41
2018-12-31T09:50:17.007Z,99918.16
2018-12-31T09:52:50.400Z,99918.75
2018-12-31T09:55:20.986Z,99914.70
2018-12-31T09:57:54.536Z,99916.59
2018-12-31T10:00:25.033Z,99920.39
2018-12-31T10:02:55.526Z,99910.34
2018-12-31T10:05:26.079Z,99915.41
2018-12-31T10:07:56.620Z,99915.63
2018-12-31T10:10:29.531Z,99913.03
2018-12-31T10:13:00.056Z,99908.87
2018-12-31T10:15:32.503Z,99908.66
2018-12-31T10:18:03.022Z,99898.57
2018-12-31T10:20:33.559Z,99898.32
2018-12-31T10:23:04.068Z,99906.86
2018-12-31T10:25:34.624Z,99905.55
2018-12-31T10:28:07.509Z,99904.25
2018-12-31T10:30:39.272Z,99903.17
2018-12-31T10:33:09.817Z,99901.76
2018-12-31T10:35:40.359Z,99904.11
2018-12-31T10:38:10.905Z,99910.98
2018-12-31T10:40:41.409Z,99904.80
2018-12-31T10:43:11.947Z,99900.31
2018-12-31T10:45:42.472Z,99901.73
2018-12-31T10:48:13.024Z,99907.16
2018-12-31T10:50:43.589Z,99897.68
2018-12-31T10:53:14.089Z,99902.05
2018-12-31T10:55:53.657Z,99898.62
2018-12-31T10:58:24.210Z,99899.45
2018-12-31T11:00:57.217Z,99900.17
2018-12-31T11:03:27.800Z,99895.19
2018-12-31T11:05:58.289Z,99886.17
2018-12-31T11:08:28.830Z,99885.09
2018-12-31T11:10:59.414Z,99882.23
2018-12-31T11:13:29.901Z,99872.53
2018-12-31T11:16:01.773Z,99876.61
2018-12-31T11:18:32.307Z,99874.42
2018-12-31T11:21:02.842Z,99869.36
2018-12-31T11:23:33.428Z,99865.52
2018-12-31T11:26:04.041Z,99866.69
2018-12-31T11:28:34.542Z,99864.33
2018-12-31T11:31:05.103Z,99846.86
2018-12-31T11:33:35.626Z,99854.05
2018-12-31T11:36:08.997Z,99847.95
2018-12-31T11:38:39.490Z,99844.91
2018-12-31T11:41:10.041Z,99842.75
2018-12-31T11:43:40.567Z,99840.92
2018-12-31T11:46:11.131Z,99841.01
2018-12-31T11:48:41.688Z,99834.22
2018-12-31T11:51:12.360Z,99839.53
2018-12-31T11:53:42.847Z,99830.48
2018-12-31T11:56:14.429Z,99832.62
2018-12-31T11:58:44.981Z,99832.70
2018-12-31T12:01:17.341Z,99831.45
2018-12-31T12:03:47.897Z,99823.63
2018-12-31T12:06:18.470Z,99827.27
2018-12-31T12:08:49.009Z,99829.28
2018-12-31T12:11:19.631Z,99827.83
2018-12-31T12:13:50.097Z,99821.31
2018-12-31T12:16:20.697Z,99818.45
2018-12-31T12:18:51.273Z,99814.88
2018-12-31T12:21:21.811Z,99812.34
2018-12-31T12:23:52.379Z,99809.46
2018-12-31T12:26:22.860Z,99814.08
2018-12-31T12:28:53.461Z,99806.58
2018-12-31T12:31:24.368Z,99810.84
2018-12-31T12:33:54.882Z,99808.67
2018-12-31T12:36:25.394Z,99813.81
2018-12-31T12:38:56.161Z,99810.58
2018-12-31T12:41:26.645Z,99806.54
2018-12-31T12:43:57.553Z,99809.51
2018-12-31T12:46:28.088Z,99806.62
2018-12-31T12:48:58.613Z,99806.22
2018-12-31T12:51:29.104Z,99806.42
2018-12-31T12:53:59.670Z,99805.20
2018-12-31T12:56:30.193Z,99798.66
2018-12-31T12:59:00.767Z,99798.39
2018-12-31T13:01:32.566Z,99803.61
2018-12-31T13:04:03.133Z,99794.87
2018-12-31T13:06:33.877Z,99800.92
2018-12-31T13:09:05.184Z,99800.30
2018-12-31T13:11:35.764Z,99796.45
2018-12-31T13:14:06.314Z,99807.65
2018-12-31T13:16:37.118Z,99806.14
2018-12-31T13:19:07.672Z,99800.30
2018-12-31T13:21:38.232Z,99809.16
2018-12-31T13:24:18.894Z,99808.83
2018-12-31T13:26:53.107Z,99806.42
2018-12-31T13:29:23.901Z,99803.81
2018-12-31T13:31:54.461Z,99805.20
2018-12-31T13:34:24.977Z,99801.20
2018-12-31T13:36:55.501Z,99807.60
2018-12-31T13:39:26.078Z,99803.41
2018-12-31T13:41:57.982Z,99804.72
2018-12-31T13:44:28.553Z,99806.89
2018-12-31T13:46:59.086Z,99801.88
2018-12-31T13:49:30.843Z,99808.40
2018-12-31T13:52:01.496Z,99806.02
2018-12-31T13:54:32.074Z,99807.88
2018-12-31T13:57:02.612Z,99810.02
2018-12-31T13:59:33.457Z,99812.47
2018-12-31T14:02:03.991Z,99809.38
2018-12-31T14:04:34.509Z,99816.27
2018-12-31T14:07:05.083Z,99815.91
2018-12-31T14:09:35.626Z,99810.48
2018-12-31T14:12:06.191Z,99809.18
2018-12-31T14:14:36.784Z,99801.34
2018-12-31T14:17:07.374Z,99808.08
2018-12-31T14:19:38.008Z,99807.40
2018-12-31T14:22:08.833Z,99812.39
2018-12-31T14:24:40.179Z,99809.23
2018-12-31T14:27:10.667Z,99816.11
2018-12-31T14:29:41.218Z,99818.17
2018-12-31T14:32:11.732Z,99819.13
2018-12-31T14:34:42.333Z,99828.55
2018-12-31T14:37:12.886Z,99827.39
2018-12-31T14:39:43.352Z,99835.55
2018-12-31T14:42:16.412Z,99835.22
2018-12-31T14:44:46.225Z,99832.61
2018-12-31T14:47:18.440Z,99829.77
2018-12-31T14:49:49.155Z,99827.03
2018-12-31T14:52:19.641Z,99828.34
2018-12-31T14:54:50.482Z,99836.17
2018-12-31T14:57:21.083Z,99829.64
2018-12-31T14:59:51.664Z,99833.33
2018-12-31T15:02:22.192Z,99829.09
2018-12-31T15:04:52.681Z,99829.84
2018-12-31T15:07:23.220Z,99833.20
2018-12-31T15:09:53.800Z,99836.41
2018-12-31T15:12:24.381Z,99838.06
2018-12-31T15:14:54.987Z,99834.06
2018-12-31T15:17:25.799Z,99839.20
2018-12-31T15:19:56.273Z,99841.61
2018-12-31T15:22:29.165Z,99840.30
2018-12-31T15:24:59.166Z,99839.27
2018-12-31T15:27:29.646Z,99829.78
2018-12-31T15:30:00.267Z,99832.19
2018-12-31T15:32:30.850Z,99837.52
2018-12-31T15:35:01.437Z,99843.02
2018-12-31T15:37:31.952Z,99838.27
2018-12-31T15:40:02.519Z,99847.55
2018-12-31T15:42:33.073Z,99845.89
2018-12-31T15:45:03.591Z,99844.73
2018-12-31T15:47:34.123Z,99844.30
2018-12-31T15:50:07.945Z,99852.39
2018-12-31T15:52:39.491Z,99850.88
2018-12-31T15:55:10.102Z,99854.91
2018-12-31T15:57:40.653Z,99853.52
2018-12-31T16:00:12.194Z,99852.48
2018-12-31T16:02:42.686Z,99849.66
2018-12-31T16:05:13.262Z,99851.70
2018-12-31T16:07:45.955Z,99857.04
2018-12-31T16:10:16.060Z,99849.36
2018-12-31T16:12:47.329Z,99857.45
2018-12-31T16:15:17.866Z,99852.98
2018-12-31T16:17:48.446Z,99849.80
2018-12-31T16:20:19.073Z,99856.64
2018-12-31T16:22:51.918Z,99850.27
2018-12-31T16:25:23.131Z,99856.64
2018-12-31T16:27:53.682Z,99860.91
2018-12-31T16:30:24.276Z,99859.61
2018-12-31T16:32:57.720Z,99857.63
2018-12-31T16:35:28.347Z,99858.56
2018-12-31T16:37:58.986Z,99859.40
2018-12-31T16:40:29.585Z,99863.91
2018-12-31T16:43:00.199Z,99859.66
2018-12-31T16:45:31.445Z,99859.56
2018-12-31T16:48:02.212Z,99852.58
2018-12-31T16:50:32.824Z,99847.74
2018-12-31T16:53:03.460Z,99849.78
2018-12-31T16:55:34.212Z,99858.79
2018-12-31T16:58:04.863Z,99852.95
2018-12-31T17:00:35.403Z,99858.79
2018-12-31T17:03:06.638Z,99854.88
2018-12-31T17:05:37.280Z,99857.34
2018-12-31T17:08:08.427Z,99857.08
2018-12-31T17:10:39.077Z,99859.69
2018-12-31T17:13:09.709Z,99862.55
2018-12-31T17:15:40.389Z,99861.40
2018-12-31T17:18:11.054Z,99857.60
2018-12-31T17:20:42.156Z,99858.22
2018-12-31T17:23:12.725Z,99856.09
2018-12-31T17:25:43.356Z,99855.61
2018-12-31T17:28:14.215Z,99862.87
2018-12-31T17:30:44.968Z,99861.58
2018-12-31T17:33:15.593Z,99871.53
2018-12-31T17:35:48.300Z,99868.45
2018-12-31T17:38:18.881Z,99868.71
2018-12-31T17:40:49.525Z,99873.61
2018-12-31T17:43:20.103Z,99872.39
2018-12-31T17:45:50.672Z,99868.95
2018-12-31T17:48:21.200Z,99868.02
2018-12-31T17:50:51.798Z,99870.17
2018-12-31T17:53:22.910Z,99874.09
2018-12-31T17:55:53.445Z,99882.59
2018-12-31T17:58:23.937Z,99876.32
2018-12-31T18:00:54.442Z,99877.38
2018-12-31T18:03:26.675Z,99881.76
2018-12-31T18:05:57.278Z,99882.59
2018-12-31T18:08:27.798Z,99888.86
2018-12-31T18:10:58.314Z,99888.27
2018-12-31T18:13:28.919Z,99889.25
2018-12-31T18:15:59.432Z,99884.95
2018-12-31T18:18:29.985Z,99889.59
2018-12-31T18:21:00.577Z,99890.63
2018-12-31T18:23:31.110Z,99885.06
2018-12-31T18:26:01.651Z,99884.99
2018-12-31T18:28:32.209Z,99883.91
2018-12-31T18:31:02.720Z,99890.79
2018-12-31T18:33:33.341Z,99886.66
2018-12-31T18:36:03.876Z,99887.97
2018-12-31T18:38:34.736Z,99898.39
2018-12-31T18:41:05.353Z,99891.05
2018-12-31T18:43:35.894Z,99897.45
2018-12-31T18:46:06.471Z,99885.14
2018-12-31T18:48:37.171Z,99894.37
2018-12-31T18:51:07.730Z,99897.45
2018-12-31T18:53:39.664Z,99897.34
2018-12-31T18:56:10.356Z,99900.67
2018-12-31T18:58:43.040Z,99899.63
2018-12-31T19:01:13.916Z,99904.48
2018-12-31T19:03:44.759Z,99904.48
2018-12-31T19:06:15.281Z,99899.63
2018-12-31T19:08:45.768Z,99899.27
2018-12-31T19:11:17.040Z,99895.14
2018-12-31T19:13:47.673Z,99898.22
2018-12-31T19:16:18.250Z,99904.26
2018-12-31T19:18:50.913Z,99901.52
2018-12-31T19:21:21.506Z,99901.77
2018-12-31T19:23:52.674Z,99903.33
2018-12-31T19:26:23.204Z,99904.16
2018-12-31T19:28:53.763Z,99905.45
2018-12-31T19:31:24.277Z,99899.77
2018-12-31T19:33:54.787Z,99900.10
2018-12-31T19:36:25.352Z,99900.10
2018-12-31T19:38:55.908Z,99897.06
2018-12-31T19:41:26.396Z,99898.36
2018-12-31T19:43:57.003Z,99902.38
2018-12-31T19:46:27.680Z,99893.16
2018-12-31T19:49:00.271Z,99893.52
2018-12-31T19:51:30.817Z,99887.69
2018-12-31T19:54:01.329Z,99878.58
2018-12-31T19:56:31.938Z,99872.42
2018-12-31T19:59:04.658Z,99875.97
2018-12-31T20:01:35.104Z,99873.36
2018-12-31T20:04:05.701Z,99863.56
2018-12-31T20:06:36.298Z,99864.61
2018-12-31T20:09:09.226Z,99867.00
2018-12-31T20:11:39.746Z,99865.02
2018-12-31T20:14:10.316Z,99864.03
2018-12-31T20:16:40.864Z,99867.26
2018-12-31T20:19:12.185Z,99869.64
2018-12-31T20:21:42.770Z,99864.30
2018-12-31T20:24:13.320Z,99867.26
2018-12-31T20:26:43.871Z,99870.33
2018-12-31T20:29:16.591Z,99864.18
2018-12-31T20:31:47.167Z,99861.22
2018-12-31T20:34:17.711Z,99854.84
2018-12-31T20:36:48.893Z,99853.30
2018-12-31T20:39:20.126Z,99853.44
2018-12-31T20:41:50.623Z,99853.19
2018-12-31T20:44:21.384Z,99847.62
2018-12-31T20:46:55.522Z,99851.05
2018-12-31T20:49:25.656Z,99851.52
2018-12-31T20:51:56.240Z,99855.90
2018-12-31T20:54:26.787Z,99857.45
2018-12-31T20:56:58.532Z,99852.72
2018-12-31T20:59:29.039Z,99850.26
2018-12-31T21:01:59.603Z,99855.00
2018-12-31T21:04:30.177Z,99852.72
2018-12-31T21:07:00.682Z,99856.30
2018-12-31T21:09:31.201Z,99855.33
2018-12-31T21:12:01.748Z,99853.33
2018-12-31T21:14:32.711Z,99861.87
2018-12-31T21:17:03.343Z,99861.40
2018-12-31T21:19:35.137Z,99865.41
2018-12-31T21:22:06.312Z,99864.83
2018-12-31T21:24:36.829Z,99858.18
2018-12-31T21:27:07.381Z,99866.94
2018-12-31T21:29:37.944Z,99863.03
2018-12-31T21:32:08.503Z,99857.13
2018-12-31T21:34:39.091Z,99855.14
2018-12-31T21:37:10.227Z,99849.94
2018-12-31T21:39:40.812Z,99854.64
2018-12-31T21:42:11.395Z,99846.24
2018-12-31T21:44:41.906Z,99848.84
2018-12-31T21:47:12.458Z,99849.21
2018-12-31T21:49:44.469Z,99849.21
2018-12-31T21:52:15.025Z,99849.83
2018-12-31T21:54:45.841Z,99849.69
2018-12-31T21:57:18.153Z,99846.39
2018-12-31T21:59:48.774Z,99848.16
2018-12-31T22:02:19.308Z,99842.48
2018-12-31T22:04:49.907Z,99848.99
2018-12-31T22:07:20.508Z,99845.56
2018-12-31T22:09:51.053Z,99842.59
2018-12-31T22:12:21.588Z,99837.64
2018-12-31T22:14:52.124Z,99838.11
2018-12-31T22:17:23.057Z,99831.49
2018-12-31T22:19:53.570Z,99820.36
2018-12-31T22:22:24.099Z,99825.48
2018-12-31T22:24:54.632Z,99827.63
2018-12-31T22:27:25.184Z,99833.30
2018-12-31T22:29:55.735Z,99831.02
2018-12-31T22:32:26.239Z,99833.41
2018-12-31T22:34:56.779Z,99832.00
2018-12-31T22:37:27.250Z,99830.80
2018-12-31T22:39:57.716Z,99835.32
2018-12-31T22:42:28.271Z,99836.62
2018-12-31T22:44:58.757Z,99835.18
2018-12-31T22:47:29.423Z,99837.09
2018-12-31T22:50:01.140Z,99834.74
2018-12-31T22:52:31.975Z,99831.78
2018-12-31T22:55:02.538Z,99839.95
2018-12-31T22:57:33.476Z,99838.28
2018-12-31T23:00:04.792Z,99832.14
2018-12-31T23:02:35.939Z,99833.30
2018-12-31T23:05:10.245Z,99830.70
2018-12-31T23:07:41.731Z,99831.31
2018-12-31T23:10:12.368Z,99826.57
2018-12-31T23:12:44.397Z,99829.39
2018-12-31T23:15:20.749Z,99830.00
2018-12-31T23:17:51.705Z,99823.28
2018-12-31T23:20:25.501Z,99828.70
2018-12-31T23:22:58.331Z,99827.08
2018-12-31T23:25:28.854Z,99828.02
2018-12-31T23:27:59.410Z,99827.33
2018-12-31T23:30:33.055Z,99826.60
2018-12-31T23:33:03.616Z,99830.03
2018-12-31T23:35:34.137Z,99830.87
2018-12-31T23:38:04.721Z,99832.75
2018-12-31T23:40:36.106Z,99827.21
2018-12-31T23:43:06.864Z,99830.75
2018-12-31T23:45:37.776Z,99825.55
2018-12-31T23:48:08.345Z,99822.48
2018-12-31T23:50:38.879Z,99824.36
2018-12-31T23:53:09.447Z,99826.27
2018-12-31T23:55:39.987Z,99830.06
2018-12-31T23:58:10.533Z,99833.61
